Sour Lake, Texas
Current Conditions -  °F | °C
As of 11:55 PM on Monday 26 Jan 2015 (Local Time) from KBMT Reporting Station
Clear Clear  
Wind Chill: 48°   Ceiling: Unl
Heat Index: 50°   Visibility: 10mi
Dew Point: 42°   Wind: 5mph
Humidity: 76%   Direction: 220°SW
Pressure: 30.13"   Gusts: NA
Location:  30.14°N, 94.41°W
Report Text: KBMT 270555Z AUTO 22004KT 10SM CLR 10/06 A3013 RMK AO2 T00980057 10152 20095 401960045
Loading
Personal Weather Stations






























Interactive Weather Map New forecast layout! Learn more

10-Day Weather Forecast

Advertisements
Track Severe Weather on mobile